EHAM/AMS METAR and TAF weather

Enter ICAO airport designator
Station Type Date Time Source
EHAM METAR 2021/06/22 23:25 UTC NOAA

EHAM 222325Z 01005KT 330V040 9999 FEW034 13/08 Q1021 NOSIG


Station Type Date Time Source
EHAM Decoded METAR 2021/06/22 23:25 UTC NOAA

Amsterdam Airport Schiphol, Netherlands (EHAM) 52-18N 004-46E -2M
Jun 22, 2021 - 07:25 PM EDT / 2021.06.22 2325 UTC
Wind: from the N (010 degrees) at 6 MPH (5 KT) (direction variable):0
Visibility: greater than 7 mile(s):0
Sky conditions: mostly clear
Temperature: 55 F (13 C)
Dew Point: 46 F (8 C)
Relative Humidity: 71%
Pressure (altimeter): 30.15 in. Hg (1021 hPa)
ob: EHAM 222325Z 01005KT 330V040 9999 FEW034 13/08 Q1021 NOSIG
cycle: 23

Station Type Date Time Source
EHAM TAF 2021/06/22 18:28 UTC NOAA

TAF EHAM 221650Z 2218/2324 02012KT 9999 SCT035
BECMG 2218/2221 36006KT

Example: see airport list